Time;durP1;ratioP1;P1;durP2;ratioP2;P2;SDS_P1;SDS_P2;PMS_P1;PMS_P2;Temp;Humidity;BMP_temperature;BMP_pressure;BME280_temperature;BME280_humidity;BME280_pressure;Samples;Min_cycle;Max_cycle;Signal;HPM_P1;HPM_P2
2021/04/28 00:01:00;;;;;;;0.30;0.30;;;;;;;9.21;77.94;92966.88;5094345;28;20109;-40
2021/04/28 00:03:26;;;;;;;0.70;0.70;;;;;;;9.19;77.75;92972.22;5094055;28;20126;-41
2021/04/28 00:05:51;;;;;;;0.50;0.50;;;;;;;9.20;77.53;92961.94;5094326;28;20051;-40
2021/04/28 00:08:17;;;;;;;0.73;0.73;;;;;;;9.30;77.35;92955.31;5094203;28;20056;-39
2021/04/28 00:10:42;;;;;;;0.55;0.55;;;;;;;9.05;77.85;92963.41;5094328;28;20024;-41
2021/04/28 00:13:15;;;;;;;1.23;0.95;;;;;;;9.10;78.23;92959.72;5094245;28;20400;-40
2021/04/28 00:15:43;;;;;;;0.38;0.38;;;;;;;9.05;78.18;92963.41;5093949;28;20035;-42
2021/04/28 00:18:08;;;;;;;0.20;0.20;;;;;;;9.00;77.88;92972.59;5093875;28;20024;-39
2021/04/28 00:20:39;;;;;;;0.63;0.63;;;;;;;8.75;78.55;92962.66;5098745;28;20065;-40
2021/04/28 00:23:08;;;;;;;0.40;0.40;;;;;;;8.63;79.27;92972.53;5114222;28;20084;-41
2021/04/28 00:25:34;;;;;;;2.80;1.58;;;;;;;8.73;79.19;92971.44;5114023;28;20416;-40
2021/04/28 00:28:00;;;;;;;0.47;0.47;;;;;;;8.96;78.63;92971.47;5113758;28;20044;-40
2021/04/28 00:30:26;;;;;;;0.65;0.40;;;;;;;9.05;78.19;92976.44;5114028;28;20028;-41
2021/04/28 00:32:52;;;;;;;1.75;0.98;;;;;;;8.75;78.75;92949.63;5114166;28;20114;-40
2021/04/28 00:35:18;;;;;;;0.32;0.32;;;;;;;8.80;79.38;92976.22;5113999;28;20411;-41
2021/04/28 00:37:44;;;;;;;0.55;0.55;;;;;;;8.74;79.27;92966.69;5113805;28;20020;-42
2021/04/28 00:40:22;;;;;;;0.30;0.30;;;;;;;8.61;79.21;92972.34;5114058;28;20140;-40
2021/04/28 00:42:48;;;;;;;0.30;0.30;;;;;;;8.50;79.93;92987.19;5113733;28;20030;-41
2021/04/28 00:45:15;;;;;;;0.60;0.60;;;;;;;8.37;79.94;92992.81;5113691;28;20023;-40
2021/04/28 00:47:41;;;;;;;0.25;0.25;;;;;;;8.46;79.31;92986.06;5113575;28;20049;-41
2021/04/28 00:50:09;;;;;;;0.60;0.60;;;;;;;8.58;78.96;92987.94;5112668;28;20027;-39
2021/04/28 00:52:34;;;;;;;1.20;1.20;;;;;;;8.66;79.09;92977.69;5113450;28;20020;-40
2021/04/28 00:55:02;;;;;;;0.45;0.45;;;;;;;8.48;79.62;92973.25;5113542;28;20077;-39
2021/04/28 00:57:27;;;;;;;0.43;0.43;;;;;;;8.45;80.22;92968.09;5113430;28;20112;-41
2021/04/28 00:59:53;;;;;;;0.57;0.57;;;;;;;8.46;79.79;92964.06;5113415;27;20039;-40
2021/04/28 01:02:18;;;;;;;0.50;0.50;;;;;;;8.54;78.90;92953.81;5111509;28;20019;-39
2021/04/28 01:04:44;;;;;;;0.30;0.30;;;;;;;8.29;79.65;92961.81;5113382;28;20023;-40
2021/04/28 01:07:11;;;;;;;0.50;0.50;;;;;;;8.04;79.66;92958.03;5112230;28;20435;-41
2021/04/28 01:09:38;;;;;;;0.90;0.90;;;;;;;8.02;79.67;92966.09;5113176;28;20028;-39
2021/04/28 01:12:05;;;;;;;0.30;0.30;;;;;;;8.06;79.29;92960.97;5113185;28;20031;-40
2021/04/28 01:14:31;;;;;;;0.50;0.50;;;;;;;8.17;79.13;92944.88;5112186;28;20051;-40
2021/04/28 01:16:57;;;;;;;1.38;1.27;;;;;;;8.15;79.05;92965.94;5105697;28;20028;-40
2021/04/28 01:19:23;;;;;;;1.00;0.30;;;;;;;8.18;79.11;92960.13;5092928;28;20408;-40
2021/04/28 01:21:49;;;;;;;0.45;0.45;;;;;;;8.01;79.78;92959.84;5092830;28;20024;-40
2021/04/28 01:24:14;;;;;;;1.85;0.77;;;;;;;7.98;80.33;92962.94;5092586;28;20080;-39
2021/04/28 01:26:40;;;;;;;0.93;0.88;;;;;;;7.91;80.23;92956.16;5091986;28;20129;-40
2021/04/28 01:29:06;;;;;;;2.15;1.85;;;;;;;8.04;79.42;92963.53;5092736;28;20016;-39
2021/04/28 01:31:32;;;;;;;0.60;0.60;;;;;;;7.88;79.21;92956.50;5091552;28;20024;-41
2021/04/28 01:33:59;;;;;;;0.98;0.98;;;;;;;8.04;79.16;92961.50;5091431;28;20408;-40
2021/04/28 01:36:32;;;;;;;5.53;2.10;;;;;;;8.04;79.07;92958.78;5092620;28;20112;-40
2021/04/28 01:39:03;;;;;;;1.45;1.38;;;;;;;8.16;78.60;92959.94;5092185;28;20023;-39
2021/04/28 01:41:28;;;;;;;0.22;0.22;;;;;;;8.13;78.62;92954.75;5092473;28;20074;-41
2021/04/28 01:43:55;;;;;;;0.80;0.80;;;;;;;8.12;78.35;92951.28;5091269;28;20028;-42
2021/04/28 01:46:25;;;;;;;0.40;0.40;;;;;;;7.97;78.59;92931.25;5091195;28;20026;-40
2021/04/28 01:48:50;;;;;;;0.90;0.90;;;;;;;7.95;78.82;92934.53;5092310;28;20024;-40
2021/04/28 01:51:16;;;;;;;0.52;0.52;;;;;;;7.98;78.34;92933.47;5090803;28;20086;-39
2021/04/28 01:53:42;;;;;;;0.40;0.40;;;;;;;7.99;78.54;92940.41;5092278;28;20028;-42
2021/04/28 01:56:09;;;;;;;1.13;1.05;;;;;;;8.01;78.68;92942.63;5090977;28;20427;-40
2021/04/28 01:58:37;;;;;;;0.38;0.38;;;;;;;7.81;78.63;92937.97;5090966;28;20096;-39
2021/04/28 02:01:05;;;;;;;0.63;0.63;;;;;;;7.96;78.78;92941.50;5091870;28;20024;-39
2021/04/28 02:03:30;;;;;;;0.60;0.60;;;;;;;7.92;78.93;92940.41;5091757;28;20123;-40
2021/04/28 02:05:59;;;;;;;0.63;0.63;;;;;;;7.72;79.08;92941.22;5090534;28;20122;-40
2021/04/28 02:08:24;;;;;;;0.40;0.40;;;;;;;7.87;79.03;92941.28;5091949;28;20403;-39
2021/04/28 02:10:50;;;;;;;0.30;0.30;;;;;;;7.59;79.66;92934.56;5091874;28;20040;-40
2021/04/28 02:13:16;;;;;;;0.22;0.22;;;;;;;7.74;79.72;92933.16;5097174;28;20392;-43
2021/04/28 02:15:43;;;;;;;0.70;0.70;;;;;;;7.86;78.98;92943.28;5110612;28;20023;-41
2021/04/28 02:18:09;;;;;;;0.60;0.60;;;;;;;7.93;78.85;92939.09;5110963;28;20053;-39
2021/04/28 02:20:35;;;;;;;0.40;0.40;;;;;;;7.54;79.50;92943.69;5110933;28;20020;-43
2021/04/28 02:23:03;;;;;;;0.30;0.30;;;;;;;7.65;80.37;92934.41;5110495;28;20504;-40
2021/04/28 02:25:28;;;;;;;1.83;1.73;;;;;;;7.63;79.63;92934.97;5111626;28;20411;-40
2021/04/28 02:27:54;;;;;;;0.60;0.60;;;;;;;7.64;79.39;92944.66;5111474;28;20058;-40
2021/04/28 02:30:22;;;;;;;0.25;0.25;;;;;;;7.82;78.62;92948.41;5111920;28;20031;-39
2021/04/28 02:32:49;;;;;;;0.80;0.80;;;;;;;7.65;79.48;92951.63;5111896;28;20103;-40
2021/04/28 02:35:15;;;;;;;0.57;0.57;;;;;;;7.42;80.13;92956.28;5111857;28;20419;-41
2021/04/28 02:37:42;;;;;;;0.22;0.22;;;;;;;7.52;80.09;92957.22;5111484;28;20081;-39
2021/04/28 02:40:10;;;;;;;0.50;0.50;;;;;;;7.65;79.71;92956.38;5110224;28;20061;-40
2021/04/28 02:42:36;;;;;;;0.40;0.40;;;;;;;7.57;79.59;92961.09;5111398;28;20103;-40
2021/04/28 02:45:05;;;;;;;0.65;0.65;;;;;;;7.62;79.53;92966.44;5111389;28;20165;-40
2021/04/28 02:47:32;;;;;;;0.20;0.20;;;;;;;7.36;79.65;92968.69;5111480;28;20031;-40
2021/04/28 02:49:58;;;;;;;0.75;0.75;;;;;;;7.57;79.38;92963.84;5111270;28;20050;-40
2021/04/28 02:52:24;;;;;;;0.40;0.40;;;;;;;7.41;79.33;92960.28;5110060;28;20031;-40
2021/04/28 02:54:50;;;;;;;1.42;1.25;;;;;;;7.61;78.77;92956.00;5111165;28;20028;-40
2021/04/28 02:57:16;;;;;;;0.40;0.40;;;;;;;7.60;79.09;92957.28;5111171;28;20028;-41
2021/04/28 02:59:41;;;;;;;0.30;0.30;;;;;;;7.41;79.85;92948.56;5109855;28;20032;-39
2021/04/28 03:02:08;;;;;;;0.30;0.30;;;;;;;7.36;79.29;92947.41;5111376;28;20019;-40
2021/04/28 03:04:37;;;;;;;0.30;0.30;;;;;;;7.33;79.15;92948.53;5109882;28;20028;-42
2021/04/28 03:07:03;;;;;;;0.38;0.38;;;;;;;7.37;79.59;92956.41;5109898;28;20027;-40
2021/04/28 03:09:29;;;;;;;0.30;0.30;;;;;;;7.45;78.47;92959.94;5104554;28;20598;-39
2021/04/28 03:11:54;;;;;;;3.38;1.85;;;;;;;7.30;78.32;92971.56;5090901;28;20668;-41
2021/04/28 03:14:20;;;;;;;1.23;1.23;;;;;;;7.11;78.40;92954.59;5090837;28;20028;-40
2021/04/28 03:16:45;;;;;;;0.45;0.45;;;;;;;7.18;77.68;92972.38;5090773;28;20016;-40
2021/04/28 03:19:11;;;;;;;2.47;2.28;;;;;;;7.00;77.69;92976.81;5090497;28;20028;-39
2021/04/28 03:21:40;;;;;;;1.52;1.42;;;;;;;6.93;78.99;92988.47;5090433;28;20028;-40
2021/04/28 03:24:06;;;;;;;1.73;1.63;;;;;;;6.80;80.28;92994.75;5093111;28;20019;-39
2021/04/28 03:26:32;;;;;;;2.90;2.60;;;;;;;6.88;80.46;92995.59;5110698;27;20431;-41
2021/04/28 03:28:58;;;;;;;1.38;1.30;;;;;;;6.93;79.85;93007.69;5110988;28;20035;-40
2021/04/28 03:31:23;;;;;;;0.60;0.60;;;;;;;6.88;80.17;93003.06;5110730;28;20019;-40
2021/04/28 03:33:49;;;;;;;1.85;1.75;;;;;;;6.93;80.09;93012.44;5108920;28;20058;-40
2021/04/28 03:36:14;;;;;;;2.08;1.90;;;;;;;7.07;79.37;93014.59;5109979;28;20111;-41
2021/04/28 03:38:40;;;;;;;0.85;0.82;;;;;;;6.96;79.38;93005.88;5110913;28;20072;-39
2021/04/28 03:41:06;;;;;;;1.67;1.58;;;;;;;6.87;79.45;93018.06;5109376;28;20039;-41
2021/04/28 03:43:31;;;;;;;2.50;2.22;;;;;;;6.86;79.14;93016.59;5110906;28;20031;-39
2021/04/28 03:45:57;;;;;;;1.42;1.02;;;;;;;6.77;79.28;93028.03;5110837;28;20416;-40
2021/04/28 03:48:22;;;;;;;1.65;1.58;;;;;;;6.88;79.82;93031.25;5110730;28;20084;-40
2021/04/28 03:50:47;;;;;;;1.30;1.08;;;;;;;6.98;78.99;93042.50;5110767;28;20034;-41
2021/04/28 03:53:13;;;;;;;1.27;1.20;;;;;;;7.11;78.21;93045.16;5110718;28;20050;-41
2021/04/28 03:55:39;;;;;;;0.90;0.90;;;;;;;7.20;77.43;93038.47;5110323;28;20022;-40
2021/04/28 03:58:04;;;;;;;5.10;2.03;;;;;;;7.22;78.35;93049.66;5110708;28;20076;-39
2021/04/28 04:00:30;;;;;;;1.38;1.27;;;;;;;7.34;78.32;93040.59;5110692;28;20023;-41
2021/04/28 04:02:55;;;;;;;1.65;1.55;;;;;;;7.32;79.00;93037.66;5110724;28;20435;-39
2021/04/28 04:05:21;;;;;;;3.05;1.67;;;;;;;7.51;79.11;93046.41;5107137;28;20419;-40
2021/04/28 04:07:46;;;;;;;0.98;0.98;;;;;;;7.43;77.85;93051.09;5090263;28;20028;-41
2021/04/28 04:10:12;;;;;;;1.27;1.17;;;;;;;7.35;77.24;93063.31;5090264;28;20489;-39
2021/04/28 04:12:37;;;;;;;1.45;1.35;;;;;;;7.17;76.49;93070.47;5090221;28;20024;-41
2021/04/28 04:15:05;;;;;;;1.65;1.55;;;;;;;7.39;76.72;93069.94;5090269;28;20028;-40
2021/04/28 04:17:31;;;;;;;2.47;2.38;;;;;;;7.67;77.07;93063.03;5089871;28;20026;-39
2021/04/28 04:19:56;;;;;;;1.45;1.17;;;;;;;7.70;77.40;93061.91;5090244;28;20028;-39
2021/04/28 04:22:22;;;;;;;0.38;0.38;;;;;;;7.95;77.32;93058.22;5090184;28;20024;-40
2021/04/28 04:24:47;;;;;;;1.60;1.50;;;;;;;8.21;77.32;93060.00;5099068;28;20043;-40
2021/04/28 04:27:13;;;;;;;1.20;1.20;;;;;;;8.66;75.74;93065.75;5110041;28;20047;-39
2021/04/28 04:29:38;;;;;;;1.98;1.63;;;;;;;9.15;73.92;93066.22;5110429;28;20631;-40
2021/04/28 04:32:04;;;;;;;1.85;1.75;;;;;;;9.70;72.41;93063.66;5110432;28;20027;-40
2021/04/28 04:34:29;;;;;;;7.15;1.55;;;;;;;9.88;69.67;93070.09;5110390;28;20643;-41
2021/04/28 04:36:55;;;;;;;0.63;0.63;;;;;;;9.98;70.69;93062.75;5112512;28;20027;-41
2021/04/28 04:39:20;;;;;;;1.75;1.65;;;;;;;10.04;70.00;93059.78;5113757;28;20120;-42
2021/04/28 04:41:45;;;;;;;1.23;1.05;;;;;;;10.17;68.77;93068.59;5113742;28;20030;-40
2021/04/28 04:44:11;;;;;;;2.25;2.05;;;;;;;10.26;69.43;93062.53;5113650;28;20024;-41
2021/04/28 04:46:36;;;;;;;1.30;1.30;;;;;;;10.33;68.72;93064.50;5113790;28;20019;-39
2021/04/28 04:49:02;;;;;;;1.45;1.35;;;;;;;10.36;69.06;93077.19;5112352;28;20028;-40
2021/04/28 04:51:27;;;;;;;0.85;0.85;;;;;;;10.44;69.59;93066.88;5113939;28;20046;-41
2021/04/28 04:53:53;;;;;;;2.63;1.02;;;;;;;10.61;69.59;93064.22;5113794;28;20042;-40
2021/04/28 04:56:18;;;;;;;0.20;0.20;;;;;;;10.85;68.06;93068.34;5113536;28;20579;-40
2021/04/28 04:58:44;;;;;;;1.45;1.35;;;;;;;11.02;68.10;93068.44;5113464;28;20031;-40
2021/04/28 05:01:09;;;;;;;4.15;1.98;;;;;;;10.99;67.01;93060.56;5113355;28;20034;-41
2021/04/28 05:03:34;;;;;;;0.43;0.43;;;;;;;11.22;67.61;93061.16;5093409;28;20038;-40
2021/04/28 05:06:00;;;;;;;3.85;2.67;;;;;;;11.43;66.78;93061.59;5092877;28;20027;-40
2021/04/28 05:08:25;;;;;;;1.55;0.88;;;;;;;11.80;66.53;93063.31;5092876;28;20028;-41
2021/04/28 05:10:53;;;;;;;1.63;1.25;;;;;;;12.21;65.81;93066.66;5093069;28;20104;-41
2021/04/28 05:13:18;;;;;;;1.25;1.23;;;;;;;12.37;65.17;93060.41;5093052;28;20035;-41
2021/04/28 05:15:44;;;;;;;3.05;2.70;;;;;;;12.52;64.88;93071.31;5092738;28;20032;-40
2021/04/28 05:18:09;;;;;;;2.47;2.38;;;;;;;12.43;65.00;93060.88;5092681;28;20024;-40
2021/04/28 05:20:34;;;;;;;1.20;1.20;;;;;;;12.51;63.84;93082.97;5092998;28;20031;-40
2021/04/28 05:23:00;;;;;;;0.30;0.30;;;;;;;12.21;64.11;93086.78;5092566;28;20538;-43
2021/04/28 05:25:25;;;;;;;2.78;1.88;;;;;;;12.13;64.31;93086.09;5092533;28;20073;-41
2021/04/28 05:27:51;;;;;;;1.45;1.10;;;;;;;12.18;64.89;93072.03;5092170;28;20123;-40
2021/04/28 05:30:17;;;;;;;0.65;0.65;;;;;;;12.28;64.04;93091.47;5092458;28;20035;-41
2021/04/28 05:32:42;;;;;;;0.63;0.63;;;;;;;12.20;63.58;93093.59;5092656;28;20024;-41
2021/04/28 05:35:09;;;;;;;2.45;0.75;;;;;;;12.06;62.59;93092.44;5092187;28;20024;-40
2021/04/28 05:37:35;;;;;;;1.95;0.95;;;;;;;11.85;63.19;93098.34;5092249;28;20481;-41
2021/04/28 05:40:01;;;;;;;1.10;1.10;;;;;;;11.74;64.52;93084.94;5092531;28;20035;-41
2021/04/28 05:42:26;;;;;;;1.27;1.25;;;;;;;11.65;65.11;93085.53;5092247;28;20493;-41
2021/04/28 05:44:52;;;;;;;0.93;0.85;;;;;;;11.74;64.46;93079.44;5092055;28;20092;-42
2021/04/28 05:47:18;;;;;;;0.63;0.63;;;;;;;11.85;64.46;93073.44;5090462;28;20042;-42
2021/04/28 05:49:44;;;;;;;0.98;0.98;;;;;;;11.88;63.71;93072.31;5092357;28;20496;-43
2021/04/28 05:52:09;;;;;;;3.22;1.50;;;;;;;12.14;64.58;93071.72;5092042;28;20496;-42
2021/04/28 05:54:35;;;;;;;1.02;0.68;;;;;;;12.38;62.53;93083.28;5091933;28;20084;-40
2021/04/28 05:57:02;;;;;;;0.57;0.57;;;;;;;12.47;60.79;93086.16;5092240;28;20095;-41
2021/04/28 05:59:27;;;;;;;0.57;0.57;;;;;;;12.65;59.84;93092.41;5091908;28;20024;-41
2021/04/28 06:01:53;;;;;;;0.50;0.50;;;;;;;12.61;59.89;93095.59;5092092;28;20039;-42
2021/04/28 06:04:18;;;;;;;0.93;0.88;;;;;;;13.02;60.23;93105.06;5092101;28;20515;-41
2021/04/28 06:06:44;;;;;;;0.70;0.70;;;;;;;13.56;58.41;93114.91;5091617;28;20020;-41
2021/04/28 06:09:09;;;;;;;0.68;0.68;;;;;;;14.17;56.56;93106.41;5092077;28;20024;-41
2021/04/28 06:11:35;;;;;;;0.65;0.65;;;;;;;14.56;54.00;93114.81;5091626;28;20481;-41
2021/04/28 06:14:01;;;;;;;1.52;1.50;;;;;;;14.96;53.05;93110.19;5091919;28;20028;-41
2021/04/28 06:16:26;;;;;;;0.50;0.50;;;;;;;15.58;50.99;93097.22;5091978;28;20563;-41
2021/04/28 06:18:52;;;;;;;0.85;0.85;;;;;;;15.52;50.92;93093.28;5091810;28;20468;-42
2021/04/28 06:21:18;;;;;;;3.00;2.15;;;;;;;15.86;49.49;93090.09;5091805;28;20020;-42
2021/04/28 06:23:44;;;;;;;0.55;0.55;;;;;;;16.17;49.14;93076.19;5091398;28;20504;-44
2021/04/28 06:26:09;;;;;;;0.93;0.80;;;;;;;16.33;47.36;93068.94;5111670;28;20023;-43
2021/04/28 06:28:35;;;;;;;0.45;0.45;;;;;;;16.47;49.43;93058.69;5111931;28;20024;-41
2021/04/28 06:31:00;;;;;;;1.05;1.02;;;;;;;16.38;48.21;93057.44;5111920;28;20029;-41
2021/04/28 06:33:26;;;;;;;1.90;1.27;;;;;;;16.63;47.74;93059.81;5111630;28;20511;-42
2021/04/28 06:35:51;;;;;;;2.03;1.65;;;;;;;17.04;45.86;93054.78;5111786;28;20028;-43
2021/04/28 06:38:17;;;;;;;1.48;1.38;;;;;;;17.22;46.43;93045.50;5111858;28;20023;-42
2021/04/28 06:40:42;;;;;;;0.82;0.82;;;;;;;18.09;43.24;93053.63;5111418;28;20025;-41
2021/04/28 06:43:09;;;;;;;0.80;0.80;;;;;;;18.38;45.42;93047.66;5111416;28;20031;-42
2021/04/28 06:45:35;;;;;;;1.20;0.82;;;;;;;18.97;38.80;93055.34;5110211;28;20026;-41
2021/04/28 06:48:02;;;;;;;0.93;0.93;;;;;;;19.16;39.29;93060.63;5111540;28;20019;-42
2021/04/28 06:50:28;;;;;;;0.40;0.38;;;;;;;19.89;37.57;93065.34;5111664;28;20027;-43
2021/04/28 06:52:53;;;;;;;0.38;0.38;;;;;;;20.11;36.28;93071.41;5111258;27;20059;-41
2021/04/28 06:55:19;;;;;;;1.48;1.38;;;;;;;19.71;36.08;93080.47;5110359;28;20024;-46
2021/04/28 06:57:51;;;;;;;1.33;1.23;;;;;;;20.52;35.38;93083.41;5109051;28;20015;-42
2021/04/28 07:00:17;;;;;;;0.95;0.75;;;;;;;20.77;35.34;93082.56;5090508;28;20024;-42
2021/04/28 07:02:42;;;;;;;1.38;1.27;;;;;;;22.18;33.67;93076.06;5090810;28;20038;-45
2021/04/28 07:05:09;;;;;;;2.13;1.48;;;;;;;23.34;31.71;93079.72;5090188;28;20019;-42
2021/04/28 07:07:34;;;;;;;1.00;1.00;;;;;;;22.38;32.27;93091.03;5090495;28;20032;-45
2021/04/28 07:09:59;;;;;;;0.55;0.55;;;;;;;22.80;31.03;93086.59;5090683;28;20031;-42
2021/04/28 07:12:25;;;;;;;1.85;1.02;;;;;;;23.43;31.79;93083.59;5090622;28;20039;-42
2021/04/28 07:14:50;;;;;;;0.45;0.45;;;;;;;23.17;30.69;93091.66;5090861;28;20513;-43
2021/04/28 07:17:16;;;;;;;1.05;0.93;;;;;;;24.30;28.91;93087.75;5090450;28;20481;-45
2021/04/28 07:19:41;;;;;;;1.00;0.80;;;;;;;24.22;29.36;93098.72;5090754;28;20020;-42
2021/04/28 07:22:06;;;;;;;0.40;0.40;;;;;;;24.58;28.80;93102.91;5090811;28;20020;-42
2021/04/28 07:24:32;;;;;;;0.73;0.73;;;;;;;23.94;28.27;93089.88;5101136;28;20432;-42
2021/04/28 07:26:58;;;;;;;0.65;0.57;;;;;;;24.22;27.39;93093.06;5110672;28;20058;-43
2021/04/28 07:29:24;;;;;;;1.02;0.80;;;;;;;24.27;27.98;93098.22;5110972;28;20043;-42
2021/04/28 07:31:50;;;;;;;1.65;1.33;;;;;;;24.45;27.13;93104.53;5110952;28;20084;-45
2021/04/28 07:34:15;;;;;;;1.23;0.65;;;;;;;23.83;28.73;93100.03;5110729;28;20028;-42
2021/04/28 07:36:41;;;;;;;1.33;1.13;;;;;;;24.58;29.23;93100.09;5110573;28;20031;-46
2021/04/28 07:39:07;;;;;;;0.93;0.93;;;;;;;25.32;26.68;93094.25;5110905;28;20020;-44
2021/04/28 07:41:34;;;;;;;0.52;0.50;;;;;;;25.43;25.89;93098.91;5110955;28;20042;-43
2021/04/28 07:44:00;;;;;;;5.43;0.95;;;;;;;25.94;25.46;93104.09;5110606;28;20042;-42
2021/04/28 07:46:26;;;;;;;0.47;0.47;;;;;;;26.03;26.17;93088.09;5110951;28;20396;-42
2021/04/28 07:48:51;;;;;;;0.80;0.73;;;;;;;25.58;25.50;93102.91;5110751;28;20024;-45
2021/04/28 07:51:17;;;;;;;1.23;0.50;;;;;;;24.31;27.49;93097.66;5110882;28;20519;-42
2021/04/28 07:53:42;;;;;;;4.03;1.30;;;;;;;23.62;28.78;93111.88;5110513;28;20494;-45
2021/04/28 07:56:08;;;;;;;2.20;1.50;;;;;;;24.36;27.37;93107.72;5090252;28;20089;-42
2021/04/28 07:58:33;;;;;;;0.55;0.45;;;;;;;24.84;27.01;93104.59;5090112;28;20473;-43
2021/04/28 08:00:59;;;;;;;0.40;0.40;;;;;;;25.29;26.02;93106.88;5090178;28;20028;-43
2021/04/28 08:03:24;;;;;;;0.85;0.85;;;;;;;25.67;25.03;93110.28;5090083;28;20024;-47
2021/04/28 08:05:49;;;;;;;2.80;1.38;;;;;;;25.26;25.41;93108.19;5089908;28;20032;-43
2021/04/28 08:08:15;;;;;;;2.42;0.82;;;;;;;25.69;26.28;93101.13;5090271;28;20032;-44
2021/04/28 08:10:40;;;;;;;2.20;0.82;;;;;;;26.64;24.05;93088.53;5092205;28;20479;-42
2021/04/28 08:13:10;;;;;;;1.10;0.88;;;;;;;27.02;23.84;93089.66;5094222;28;20416;-44
2021/04/28 08:15:37;;;;;;;4.45;1.77;;;;;;;27.38;25.75;93094.84;5094175;28;20420;-44
2021/04/28 08:18:03;;;;;;;1.40;0.95;;;;;;;28.94;21.98;93097.09;5093876;28;20031;-45
2021/04/28 08:20:29;;;;;;;1.20;0.43;;;;;;;29.32;21.26;93094.34;5094176;28;20047;-43
2021/04/28 08:22:54;;;;;;;1.23;0.65;;;;;;;28.26;21.81;93094.22;5094063;28;20416;-43
2021/04/28 08:25:21;;;;;;;0.52;0.52;;;;;;;27.59;23.09;93096.84;5107648;28;20027;-43
2021/04/28 08:27:47;;;;;;;1.45;1.33;;;;;;;26.85;24.79;93084.94;5113834;28;20040;-42
2021/04/28 08:30:13;;;;;;;2.00;1.05;;;;;;;27.28;23.51;93086.06;5113984;28;20482;-43
2021/04/28 08:32:39;;;;;;;0.80;0.80;;;;;;;27.61;22.76;93085.53;5113140;28;20401;-45
2021/04/28 08:35:06;;;;;;;0.40;0.40;;;;;;;27.75;23.21;93094.38;5113972;28;20022;-43
2021/04/28 08:37:32;;;;;;;1.23;1.13;;;;;;;25.94;25.19;93087.13;5114178;28;20054;-43
2021/04/28 08:39:57;;;;;;;0.60;0.55;;;;;;;26.71;24.25;93095.81;5114144;27;20039;-43
2021/04/28 08:42:23;;;;;;;0.57;0.57;;;;;;;27.31;22.87;93084.75;5113764;28;20039;-44
2021/04/28 08:44:48;;;;;;;0.50;0.50;;;;;;;27.83;23.29;93082.53;5113776;28;20049;-42
2021/04/28 08:47:14;;;;;;;1.40;1.13;;;;;;;28.02;22.56;93090.09;5112403;28;20019;-42
2021/04/28 08:49:41;;;;;;;1.35;0.80;;;;;;;28.02;22.38;93082.31;5113636;28;20020;-42
2021/04/28 08:52:07;;;;;;;2.00;0.50;;;;;;;26.83;23.63;93072.81;5095536;28;20028;-45
2021/04/28 08:54:32;;;;;;;1.00;0.90;;;;;;;27.01;24.37;93068.38;5093225;28;20032;-42
2021/04/28 08:57:01;;;;;;;0.55;0.55;;;;;;;27.34;23.32;93072.78;5092122;28;20028;-45
2021/04/28 08:59:26;;;;;;;;;;;;;;;27.70;22.00;93076.53;5094007;28;20024;-43
2021/04/28 09:01:52;;;;;;;0.50;0.50;;;;;;;27.48;22.96;93087.31;5093322;28;19912;-43
2021/04/28 09:04:19;;;;;;;0.88;0.57;;;;;;;27.42;23.16;93100.63;5092123;28;20429;-44
2021/04/28 09:06:46;;;;;;;0.50;0.50;;;;;;;27.20;23.24;93092.22;5093129;28;20035;-44
2021/04/28 09:09:16;;;;;;;0.88;0.88;;;;;;;27.13;23.27;93093.47;5092834;28;20031;-43
2021/04/28 09:11:43;;;;;;;0.68;0.68;;;;;;;27.20;23.42;93092.22;5092885;28;20032;-42
2021/04/28 09:14:17;;;;;;;1.00;0.80;;;;;;;26.39;25.28;93080.72;5092789;28;20020;-43
2021/04/28 09:17:05;;;;;;;1.00;0.85;;;;;;;26.50;24.73;93082.47;5093020;28;20028;-41
2021/04/28 09:19:40;;;;;;;0.70;0.70;;;;;;;27.10;27.24;93072.13;5093098;28;20055;-46
2021/04/28 09:22:13;;;;;;;0.47;0.47;;;;;;;27.27;24.03;93085.34;5091898;28;20020;-46
2021/04/28 09:24:49;;;;;;;0.70;0.70;;;;;;;27.50;24.39;93075.34;5100724;28;20453;-44
2021/04/28 09:27:36;;;;;;;1.33;1.23;;;;;;;28.25;22.87;93070.06;5112706;28;20039;-43
2021/04/28 09:30:07;;;;;;;0.75;0.50;;;;;;;28.90;23.64;93075.03;5112917;28;20504;-43
2021/04/28 09:32:36;;;;;;;1.10;0.60;;;;;;;28.61;23.34;93073.00;5112859;28;20039;-43
2021/04/28 09:35:20;;;;;;;0.50;0.50;;;;;;;27.90;23.13;93073.47;5112783;28;20020;-45
2021/04/28 09:37:53;;;;;;;0.40;0.40;;;;;;;27.05;23.65;93079.81;5112725;28;20527;-43
2021/04/28 09:40:19;;;;;;;1.88;0.45;;;;;;;27.16;24.38;93080.09;5113285;28;20027;-44
2021/04/28 09:42:58;;;;;;;0.65;0.65;;;;;;;27.38;26.82;93067.22;5112927;28;20054;-45
2021/04/28 09:45:44;;;;;;;0.40;0.40;;;;;;;28.21;23.85;93063.56;5112652;28;20030;-45
2021/04/28 09:48:21;;;;;;;0.85;0.45;;;;;;;28.38;21.63;93063.25;5112405;27;20028;-43
2021/04/28 09:50:48;;;;;;;0.70;0.70;;;;;;;28.53;24.47;93050.81;5112471;28;20019;-45
2021/04/28 09:53:27;;;;;;;0.60;0.60;;;;;;;28.61;23.46;93050.25;5112713;28;20034;-45
2021/04/28 09:55:52;;;;;;;0.90;0.90;;;;;;;29.03;22.76;93036.91;5112643;28;20035;-42
2021/04/28 09:58:18;;;;;;;2.13;1.48;;;;;;;29.45;21.32;93033.41;5112274;28;20381;-45
2021/04/28 10:00:58;;;;;;;1.05;0.55;;;;;;;29.17;22.65;93034.34;5111074;28;20058;-42
2021/04/28 10:03:42;;;;;;;1.45;0.80;;;;;;;28.90;23.15;93040.19;5111009;28;20041;-45
2021/04/28 10:06:08;;;;;;;1.65;1.17;;;;;;;29.13;21.30;93045.63;5112575;28;20037;-45
2021/04/28 10:08:33;;;;;;;1.15;0.75;;;;;;;28.38;22.67;93036.97;5112381;28;20043;-44
2021/04/28 10:10:59;;;;;;;0.38;0.38;;;;;;;28.96;23.72;93038.19;5112427;28;20084;-41
2021/04/28 10:13:26;;;;;;;0.80;0.80;;;;;;;29.37;22.35;93036.81;5112341;28;20457;-44
2021/04/28 10:15:52;;;;;;;0.50;0.50;;;;;;;29.64;21.24;93038.00;5112299;28;20023;-45
2021/04/28 10:18:19;;;;;;;0.65;0.65;;;;;;;29.04;22.65;93032.66;5112302;28;20023;-44
2021/04/28 10:20:45;;;;;;;0.98;0.80;;;;;;;29.12;22.27;93029.25;5111816;28;20024;-43
2021/04/28 10:23:15;;;;;;;1.25;0.50;;;;;;;29.92;21.40;93024.97;5111806;28;20016;-42
2021/04/28 10:25:46;;;;;;;0.98;0.57;;;;;;;29.57;23.93;93008.00;5111430;28;20024;-45
2021/04/28 10:28:12;;;;;;;0.60;0.60;;;;;;;29.05;23.60;93024.84;5111326;28;20047;-42
2021/04/28 10:30:41;;;;;;;1.05;0.90;;;;;;;28.23;22.68;93038.78;5110808;28;20031;-43
2021/04/28 10:33:12;;;;;;;0.57;0.57;;;;;;;28.51;24.01;93028.03;5109779;28;20019;-44
2021/04/28 10:35:38;;;;;;;0.95;0.80;;;;;;;29.17;22.50;93025.09;5110307;28;20032;-43
2021/04/28 10:38:04;;;;;;;0.50;0.50;;;;;;;29.54;23.35;93018.63;5111840;28;20024;-43
2021/04/28 10:40:29;;;;;;;0.75;0.55;;;;;;;29.54;22.51;93024.31;5111511;28;20034;-44
2021/04/28 10:43:06;;;;;;;0.55;0.55;;;;;;;30.80;22.59;93027.59;5107971;28;20020;-44
2021/04/28 10:45:37;;;;;;;2.28;0.63;;;;;;;30.86;22.20;93027.72;5091431;28;20117;-43
2021/04/28 10:48:07;;;;;;;2.08;1.45;;;;;;;30.55;25.84;93028.72;5091300;28;20039;-43
2021/04/28 10:50:39;;;;;;;1.48;1.38;;;;;;;30.50;26.10;93027.97;5090938;28;20067;-42
2021/04/28 10:53:22;;;;;;;1.63;0.85;;;;;;;30.62;25.90;93030.25;5090898;28;20026;-43
2021/04/28 10:56:10;;;;;;;1.75;1.27;;;;;;;30.00;26.91;93024.38;5091182;28;20111;-43
2021/04/28 10:58:40;;;;;;;2.60;1.83;;;;;;;29.12;28.34;93020.72;5090810;28;20550;-43
2021/04/28 11:01:06;;;;;;;1.35;1.00;;;;;;;28.49;28.31;93022.31;5091112;28;20040;-45
2021/04/28 11:03:34;;;;;;;2.53;1.48;;;;;;;28.00;29.67;93028.34;5090779;28;20466;-42
2021/04/28 11:06:19;;;;;;;2.70;2.20;;;;;;;27.77;30.31;93029.19;5090808;28;20032;-43
2021/04/28 11:08:54;;;;;;;2.10;1.73;;;;;;;27.47;30.79;93031.28;5090549;28;20085;-42
2021/04/28 11:14:09;;;;;;;2.72;1.98;;;;;;;27.29;31.91;93022.31;5090619;28;20040;-45
2021/04/28 11:16:48;;;;;;;1.77;1.67;;;;;;;27.07;31.00;93018.91;5090798;28;20028;-42
2021/04/28 11:19:24;;;;;;;1.80;1.33;;;;;;;26.50;32.24;93028.69;5090890;28;20051;-42
2021/04/28 11:22:08;;;;;;;1.30;1.20;;;;;;;26.90;32.17;93015.66;5090552;28;20023;-43
2021/04/28 11:25:07;;;;;;;2.83;1.73;;;;;;;26.67;32.18;93024.19;5097419;28;20016;-42
2021/04/28 11:27:54;;;;;;;2.70;1.65;;;;;;;26.01;32.40;93025.81;5110471;28;20047;-44
2021/04/28 11:30:22;;;;;;;3.40;1.83;;;;;;;25.17;33.19;93030.16;5110816;28;20051;-43
2021/04/28 11:33:27;;;;;;;3.20;2.57;;;;;;;24.54;36.52;93015.97;5110787;28;20543;-44
2021/04/28 11:35:53;;;;;;;7.95;2.03;;;;;;;24.08;37.79;93034.03;5110625;28;20428;-45
2021/04/28 11:38:23;;;;;;;3.55;2.08;;;;;;;24.21;37.39;93032.38;5110976;28;20023;-45
2021/04/28 11:40:55;;;;;;;3.03;2.78;;;;;;;24.43;36.43;93033.22;5092939;28;20527;-42